Time;durP1;ratioP1;P1;durP2;ratioP2;P2;SDS_P1;SDS_P2;PMS_P1;PMS_P2;Temp;Humidity;BMP_temperature;BMP_pressure;BME280_temperature;BME280_humidity;BME280_pressure;Samples;Min_cycle;Max_cycle;Signal;HPM_P1;HPM_P2
2022/01/24 00:01:39;;;;;;;3.33;3.00;;;7.00;99.90;;;;;;5072631;28;20408;-68
2022/01/24 00:04:05;;;;;;;2.93;2.73;;;7.00;99.90;;;;;;5044031;28;20421;-69
2022/01/24 00:06:32;;;;;;;3.30;3.00;;;7.00;99.90;;;;;;5050319;28;20401;-69
2022/01/24 00:08:59;;;;;;;6.23;3.43;;;6.90;99.90;;;;;;5049953;28;20406;-70
2022/01/24 00:11:31;;;;;;;3.30;2.87;;;6.90;99.90;;;;;;5050453;28;20404;-69
2022/01/24 00:27:11;;;;;;;3.07;2.47;;;6.90;99.90;;;;;;5051356;28;20471;-68
2022/01/24 00:29:37;;;;;;;2.70;2.50;;;7.00;99.90;;;;;;5051848;28;20804;-67
2022/01/24 00:32:03;;;;;;;2.90;2.40;;;7.00;99.90;;;;;;5051671;28;20424;-68
2022/01/24 00:34:29;;;;;;;3.17;2.67;;;7.00;99.90;;;;;;5051770;28;20170;-69
2022/01/24 00:36:55;;;;;;;3.50;3.10;;;7.10;99.90;;;;;;5031723;28;20428;-69
2022/01/24 00:39:22;;;;;;;4.93;2.77;;;7.10;99.90;;;;;;5043572;28;20418;-69
2022/01/24 00:46:51;;;;;;;2.30;2.20;;;7.10;99.90;;;;;;5031673;28;20414;-68
2022/01/24 00:54:43;;;;;;;2.40;2.20;;;7.10;99.90;;;;;;5031782;28;20763;-70
2022/01/24 00:57:10;;;;;;;2.63;2.43;;;7.10;99.90;;;;;;5032896;28;20425;-68
2022/01/24 00:59:35;;;;;;;2.50;2.30;;;7.10;99.90;;;;;;5036161;28;20425;-70
2022/01/24 01:02:02;;;;;;;2.20;2.00;;;6.90;99.90;;;;;;5034940;28;20810;-70
2022/01/24 01:04:38;;;;;;;2.30;2.10;;;6.90;99.90;;;;;;5035377;28;20203;-68
2022/01/24 01:07:04;;;;;;;2.47;2.27;;;6.80;99.90;;;;;;5035347;28;20396;-70
2022/01/24 01:20:29;;;;;;;2.53;2.33;;;6.90;99.90;;;;;;5036533;28;20980;-69
2022/01/24 01:22:55;;;;;;;2.40;2.20;;;6.90;99.90;;;;;;5017333;28;20532;-69
2022/01/24 01:25:20;;;;;;;2.37;2.17;;;7.00;99.90;;;;;;5034743;28;20442;-69
2022/01/24 01:27:48;;;;;;;2.50;2.30;;;7.00;99.90;;;;;;5034930;28;20214;-70
2022/01/24 01:30:21;;;;;;;2.53;2.40;;;6.90;99.90;;;;;;5036368;28;20175;-70
2022/01/24 01:33:04;;;;;;;2.53;2.27;;;6.90;99.90;;;;;;5035395;28;20429;-70
2022/01/24 01:36:05;;;;;;;2.27;2.07;;;6.90;99.90;;;;;;5055035;28;20420;-69
2022/01/24 01:52:40;;;;;;;2.73;2.53;;;6.20;99.90;;;;;;5036049;28;20840;-70
2022/01/24 01:57:31;;;;;;;2.40;2.30;;;6.10;99.90;;;;;;5035605;28;20536;-69
2022/01/24 01:59:57;;;;;;;2.73;2.50;;;6.10;99.90;;;;;;5035517;28;20593;-70
2022/01/24 02:02:22;;;;;;;3.03;2.83;;;6.20;99.90;;;;;;5036387;28;20194;-70
2022/01/24 02:04:48;;;;;;;2.60;2.40;;;6.20;99.90;;;;;;5035887;28;20194;-69
2022/01/24 02:07:15;;;;;;;2.83;2.63;;;6.30;99.90;;;;;;5035239;28;20175;-69
2022/01/24 02:09:43;;;;;;;3.80;2.70;;;6.40;99.90;;;;;;5035631;28;20174;-70
2022/01/24 02:12:10;;;;;;;2.13;2.03;;;6.50;99.90;;;;;;5036134;28;20444;-70
2022/01/24 02:14:40;;;;;;;2.40;2.20;;;6.50;99.90;;;;;;5036902;28;20422;-70
2022/01/24 02:17:11;;;;;;;2.73;2.53;;;6.30;99.90;;;;;;5036507;28;20398;-70
2022/01/24 02:20:02;;;;;;;2.90;2.70;;;6.20;99.90;;;;;;5035673;28;20437;-70
2022/01/24 02:25:01;;;;;;;2.90;2.70;;;6.30;99.90;;;;;;5055618;28;20418;-68
2022/01/24 02:27:39;;;;;;;3.00;2.80;;;6.40;99.90;;;;;;5055000;28;20179;-68
2022/01/24 02:32:39;;;;;;;3.37;3.07;;;6.60;99.90;;;;;;5045142;28;20433;-70
2022/01/24 02:35:06;;;;;;;5.80;2.77;;;6.40;99.90;;;;;;5035236;28;20426;-69
2022/01/24 02:37:31;;;;;;;2.57;2.37;;;6.50;99.90;;;;;;5034095;28;20516;-70
2022/01/24 02:40:16;;;;;;;2.70;2.50;;;6.50;99.90;;;;;;5047529;28;20932;-69
2022/01/24 02:48:26;;;;;;;2.67;2.47;;;6.60;99.90;;;;;;5054070;28;20396;-70
2022/01/24 02:51:16;;;;;;;2.43;2.33;;;6.70;99.90;;;;;;5052980;28;20419;-70
2022/01/24 02:53:41;;;;;;;3.63;2.83;;;6.70;99.90;;;;;;5054132;28;20452;-69
2022/01/24 02:56:07;;;;;;;3.07;2.80;;;6.70;99.90;;;;;;5054397;28;20420;-69
2022/01/24 02:58:34;;;;;;;2.40;2.20;;;6.80;99.90;;;;;;5053815;28;20198;-70
2022/01/24 03:00:59;;;;;;;2.90;2.60;;;6.70;99.90;;;;;;5052615;28;20727;-69
2022/01/24 03:03:25;;;;;;;2.80;2.60;;;6.70;99.90;;;;;;5053634;28;20444;-70
2022/01/24 03:05:51;;;;;;;2.90;2.70;;;6.60;99.90;;;;;;5053761;28;20220;-70
2022/01/24 03:08:20;;;;;;;3.50;2.63;;;6.40;99.90;;;;;;5054055;28;20189;-70
2022/01/24 03:10:46;;;;;;;3.00;2.80;;;6.30;99.90;;;;;;5052647;28;20471;-69
2022/01/24 03:15:47;;;;;;;3.00;2.80;;;6.40;99.90;;;;;;5054324;28;20402;-70
2022/01/24 03:18:12;;;;;;;3.13;2.80;;;6.50;99.90;;;;;;5054255;28;20513;-71
2022/01/24 03:20:39;;;;;;;2.70;2.50;;;6.60;99.90;;;;;;5053847;28;20420;-69
2022/01/24 03:23:05;;;;;;;2.97;2.77;;;6.60;99.90;;;;;;5051998;28;20198;-70
2022/01/24 03:25:30;;;;;;;3.10;2.90;;;6.70;99.90;;;;;;5053953;28;20404;-70
2022/01/24 03:27:56;;;;;;;2.70;2.50;;;6.70;99.90;;;;;;5053721;28;20940;-70
2022/01/24 03:30:23;;;;;;;3.77;2.87;;;6.70;99.90;;;;;;5052969;28;20178;-71
2022/01/24 03:32:49;;;;;;;3.20;3.00;;;6.80;99.90;;;;;;5058840;28;20217;-68
2022/01/24 03:35:15;;;;;;;2.80;2.60;;;6.60;99.90;;;;;;5076639;28;20492;-67
2022/01/24 03:37:40;;;;;;;3.30;3.07;;;6.30;99.90;;;;;;5081954;28;20209;-68
2022/01/24 03:40:06;;;;;;;2.40;2.30;;;6.20;99.90;;;;;;5089115;28;20190;-68
2022/01/24 03:42:33;;;;;;;3.00;2.80;;;6.10;99.90;;;;;;5064680;28;20635;-70
2022/01/24 03:45:02;;;;;;;3.00;2.70;;;6.10;99.90;;;;;;5032759;28;20446;-69
2022/01/24 03:50:05;;;;;;;2.87;2.67;;;6.30;99.90;;;;;;5033016;28;20401;-70
2022/01/24 03:52:30;;;;;;;4.13;3.60;;;6.30;99.90;;;;;;5032328;28;21052;-70
2022/01/24 03:54:57;;;;;;;2.87;2.67;;;6.40;99.90;;;;;;5034198;28;20449;-70
2022/01/24 03:57:24;;;;;;;2.97;2.77;;;6.40;99.90;;;;;;5033122;28;20591;-69
2022/01/24 03:59:50;;;;;;;3.00;2.80;;;6.50;99.90;;;;;;5033187;28;20425;-69
2022/01/24 04:02:18;;;;;;;3.20;2.90;;;6.60;99.90;;;;;;5032540;28;20501;-69
2022/01/24 04:04:43;;;;;;;3.00;2.80;;;6.60;99.90;;;;;;5034007;28;20455;-68
2022/01/24 04:07:09;;;;;;;3.03;2.80;;;6.60;99.90;;;;;;5032431;28;20415;-69
2022/01/24 04:09:36;;;;;;;3.20;3.00;;;6.60;99.90;;;;;;5032836;28;20171;-69
2022/01/24 04:12:03;;;;;;;2.87;2.67;;;6.70;99.90;;;;;;5032247;28;20426;-69
2022/01/24 04:22:31;;;;;;;2.93;2.73;;;6.70;99.90;;;;;;5032858;28;20437;-69
2022/01/24 04:25:02;;;;;;;3.23;3.00;;;6.70;99.90;;;;;;5033304;28;20413;-69
2022/01/24 04:27:29;;;;;;;3.23;2.83;;;6.70;99.90;;;;;;5032214;28;20409;-69
2022/01/24 04:29:56;;;;;;;3.77;3.37;;;6.70;99.90;;;;;;5031385;28;20413;-69
2022/01/24 04:32:23;;;;;;;3.33;3.13;;;6.70;99.90;;;;;;5033953;28;20437;-69
2022/01/24 04:34:49;;;;;;;3.60;3.30;;;6.70;99.90;;;;;;5035810;28;20504;-70
2022/01/24 04:37:16;;;;;;;3.87;3.40;;;6.50;99.90;;;;;;5036740;28;20429;-69
2022/01/24 04:39:43;;;;;;;3.70;3.40;;;6.40;99.90;;;;;;5046829;28;20780;-69
2022/01/24 04:42:15;;;;;;;3.80;3.50;;;6.20;99.90;;;;;;5055735;28;20520;-69
2022/01/24 04:45:27;;;;;;;3.97;3.53;;;6.10;99.90;;;;;;5055942;28;20900;-71
2022/01/24 04:47:48;;;;;;;3.83;3.53;;;6.10;99.90;;;;;;5058568;28;20435;-70
2022/01/24 04:50:43;;;;;;;3.70;3.40;;;6.30;99.90;;;;;;5036881;28;20517;-70
2022/01/24 04:53:31;;;;;;;4.10;3.73;;;6.30;99.90;;;;;;5042031;28;21195;-69
2022/01/24 04:55:57;;;;;;;4.20;3.57;;;6.40;99.90;;;;;;5036325;28;20425;-69
2022/01/24 04:58:22;;;;;;;3.87;3.57;;;6.30;99.90;;;;;;5041089;28;21183;-69
2022/01/24 05:00:48;;;;;;;4.00;3.10;;;6.10;99.90;;;;;;5040839;28;20199;-70
2022/01/24 05:03:14;;;;;;;3.57;3.27;;;6.10;99.90;;;;;;5041432;28;20618;-69
2022/01/24 05:05:40;;;;;;;3.70;3.43;;;6.10;99.90;;;;;;5032656;28;20195;-70
2022/01/24 05:08:08;;;;;;;4.60;3.47;;;6.00;99.90;;;;;;5033209;28;20190;-69
2022/01/24 05:10:40;;;;;;;3.53;3.23;;;6.00;99.90;;;;;;5036761;28;20460;-70
2022/01/24 05:23:26;;;;;;;3.43;2.90;;;6.20;99.90;;;;;;5038517;28;20456;-70
2022/01/24 05:24:09;;;;;;;3.10;2.90;;;6.30;99.90;;;;;;5027440;28;20499;-71
2022/01/24 05:26:34;;;;;;;3.43;3.13;;;6.40;99.90;;;;;;5034802;28;20870;-70
2022/01/24 05:29:00;;;;;;;3.70;3.40;;;6.40;99.90;;;;;;5033810;28;20179;-70
2022/01/24 05:31:25;;;;;;;3.93;3.53;;;6.30;99.90;;;;;;5017135;28;20182;-71
2022/01/24 05:33:51;;;;;;;3.33;3.03;;;6.40;99.90;;;;;;5035490;28;20257;-71
2022/01/24 05:36:16;;;;;;;3.33;3.03;;;6.50;99.90;;;;;;5034574;28;20216;-70
2022/01/24 05:38:42;;;;;;;3.60;3.30;;;6.50;99.90;;;;;;5034632;28;20660;-71
2022/01/24 05:41:07;;;;;;;3.50;3.20;;;6.50;99.90;;;;;;5035171;28;20182;-72
2022/01/24 05:43:35;;;;;;;3.77;3.27;;;6.60;99.90;;;;;;5051301;28;20221;-70
2022/01/24 05:46:01;;;;;;;3.77;3.47;;;6.60;99.90;;;;;;5057781;28;20161;-71
2022/01/24 05:48:26;;;;;;;3.30;2.97;;;6.60;99.90;;;;;;5056740;28;20397;-70
2022/01/24 05:50:52;;;;;;;3.60;3.30;;;6.60;99.90;;;;;;5057982;28;20227;-67
2022/01/24 05:53:17;;;;;;;3.47;3.17;;;6.60;99.90;;;;;;5096733;22;20244;-67
2022/01/24 05:55:43;;;;;;;3.13;2.83;;;6.70;99.90;;;;;;5086732;28;20713;-67
2022/01/24 05:58:08;;;;;;;4.60;3.43;;;6.70;99.90;;;;;;5095361;28;20262;-67
2022/01/24 06:00:34;;;;;;;3.63;3.33;;;6.70;99.90;;;;;;5095215;28;20545;-67
2022/01/24 06:02:59;;;;;;;3.37;3.07;;;6.70;99.90;;;;;;5090314;28;20190;-67
2022/01/24 06:05:27;;;;;;;3.63;3.33;;;6.70;99.90;;;;;;5055033;28;20166;-68
2022/01/24 06:07:54;;;;;;;3.70;3.40;;;6.70;99.90;;;;;;5037026;28;20198;-69
2022/01/24 06:10:19;;;;;;;3.73;3.43;;;6.70;99.90;;;;;;5055537;28;20424;-68
2022/01/24 06:12:45;;;;;;;3.50;3.20;;;6.70;99.90;;;;;;5055015;28;20432;-67
2022/01/24 06:15:11;;;;;;;3.63;3.37;;;6.60;99.90;;;;;;5055416;28;20185;-67
2022/01/24 06:17:36;;;;;;;4.30;3.73;;;6.60;99.90;;;;;;5054376;28;20201;-66
2022/01/24 06:20:03;;;;;;;3.67;3.37;;;6.60;99.90;;;;;;5054328;28;20166;-69
2022/01/24 06:22:28;;;;;;;3.60;3.30;;;6.60;99.90;;;;;;5054067;28;20673;-68
2022/01/24 06:24:54;;;;;;;3.90;3.33;;;6.60;99.90;;;;;;5055092;28;20425;-68
2022/01/24 06:27:19;;;;;;;3.77;3.47;;;6.60;99.90;;;;;;5053558;28;20170;-67
2022/01/24 06:29:45;;;;;;;4.10;3.77;;;6.60;99.90;;;;;;5054044;28;20245;-67
2022/01/24 06:32:10;;;;;;;4.40;3.80;;;6.60;99.90;;;;;;5053958;28;20576;-68
2022/01/24 06:34:37;;;;;;;3.93;3.63;;;6.60;99.90;;;;;;5053851;28;20202;-67
2022/01/24 06:37:03;;;;;;;4.70;4.10;;;6.60;99.90;;;;;;5054835;28;20643;-66
2022/01/24 06:39:28;;;;;;;4.63;4.23;;;6.50;99.90;;;;;;5062580;28;20467;-66
2022/01/24 06:42:10;;;;;;;3.70;3.40;;;6.50;99.90;;;;;;5073677;28;20404;-68
2022/01/24 06:44:35;;;;;;;4.60;4.00;;;6.40;99.90;;;;;;5073978;28;20156;-68
2022/01/24 06:47:01;;;;;;;4.03;3.73;;;6.40;99.90;;;;;;5074032;28;20403;-67
2022/01/24 06:49:26;;;;;;;3.90;3.60;;;6.50;99.90;;;;;;5072139;28;20681;-67
2022/01/24 06:51:52;;;;;;;4.27;3.87;;;6.50;99.90;;;;;;5073623;28;20177;-67
2022/01/24 06:54:17;;;;;;;4.00;3.70;;;6.50;99.90;;;;;;5072726;28;20291;-67
2022/01/24 06:56:43;;;;;;;4.50;4.00;;;6.60;99.90;;;;;;5073138;28;20234;-67
2022/01/24 06:59:08;;;;;;;4.53;3.77;;;6.60;99.90;;;;;;5073214;28;20899;-67
2022/01/24 07:01:34;;;;;;;5.47;4.10;;;6.60;99.90;;;;;;5071851;28;20739;-67
2022/01/24 07:03:59;;;;;;;3.97;3.67;;;6.60;99.90;;;;;;5073553;28;20312;-68
2022/01/24 07:06:25;;;;;;;3.50;3.20;;;6.70;99.90;;;;;;5073882;28;20528;-68
2022/01/24 07:08:50;;;;;;;4.13;3.73;;;6.70;99.90;;;;;;5073569;28;20209;-67
2022/01/24 07:11:16;;;;;;;3.30;3.10;;;6.70;99.90;;;;;;5056287;28;20690;-68
2022/01/24 07:13:42;;;;;;;4.67;3.47;;;6.70;99.90;;;;;;5058455;28;20229;-67
2022/01/24 07:16:07;;;;;;;6.13;3.73;;;6.70;99.90;;;;;;5058436;28;20625;-68
2022/01/24 07:21:02;;;;;;;4.20;3.73;;;6.50;99.90;;;;;;5063354;28;20264;-67
2022/01/24 07:23:27;;;;;;;3.50;3.30;;;6.50;99.90;;;;;;5058724;28;20193;-67
2022/01/24 07:25:53;;;;;;;4.67;3.57;;;6.50;99.90;;;;;;5058256;28;20483;-68
2022/01/24 07:28:19;;;;;;;4.20;3.80;;;6.50;99.90;;;;;;5056535;28;20206;-70
2022/01/24 07:30:45;;;;;;;4.90;4.10;;;6.50;99.90;;;;;;5050368;28;20222;-67
2022/01/24 07:33:14;;;;;;;5.30;4.37;;;6.60;99.90;;;;;;5058280;28;20468;-68
2022/01/24 07:35:40;;;;;;;5.90;4.80;;;6.60;99.90;;;;;;5050632;28;20463;-68
2022/01/24 07:38:05;;;;;;;4.43;4.03;;;6.60;99.90;;;;;;5071474;28;20811;-68
2022/01/24 07:40:37;;;;;;;5.83;4.30;;;6.60;99.90;;;;;;5072476;28;20400;-67
2022/01/24 07:43:12;;;;;;;5.40;4.90;;;6.60;99.90;;;;;;5064829;28;20221;-68
2022/01/24 07:45:40;;;;;;;4.60;4.20;;;6.60;99.90;;;;;;5051260;28;20449;-66
2022/01/24 07:48:06;;;;;;;8.17;4.20;;;6.70;99.90;;;;;;5072939;28;20424;-67
2022/01/24 07:50:35;;;;;;;4.30;3.90;;;6.70;99.90;;;;;;5072961;28;20434;-67
2022/01/24 07:53:01;;;;;;;4.40;4.00;;;6.70;99.90;;;;;;5070547;28;20983;-67
2022/01/24 07:55:27;;;;;;;5.90;3.97;;;6.70;99.90;;;;;;5034802;28;20462;-67
2022/01/24 07:57:53;;;;;;;4.43;4.03;;;6.70;99.90;;;;;;5052257;28;20456;-67
2022/01/24 08:00:18;;;;;;;6.17;4.93;;;6.50;99.90;;;;;;5053718;28;20406;-67
2022/01/24 08:02:44;;;;;;;5.53;4.73;;;6.60;99.90;;;;;;5052446;28;20613;-68
2022/01/24 08:05:10;;;;;;;5.40;4.90;;;6.50;99.90;;;;;;5053123;28;20220;-68
2022/01/24 08:07:37;;;;;;;4.87;4.37;;;6.30;99.90;;;;;;5052669;28;20545;-68
2022/01/24 08:10:04;;;;;;;6.20;4.87;;;6.30;99.90;;;;;;5052292;28;20408;-68
2022/01/24 08:12:31;;;;;;;5.80;4.50;;;6.20;99.90;;;;;;5052477;28;20794;-67
2022/01/24 08:14:59;;;;;;;6.00;4.30;;;6.30;99.90;;;;;;5053891;28;20428;-68
2022/01/24 08:17:25;;;;;;;4.30;3.90;;;6.30;99.90;;;;;;5052055;28;20878;-68
2022/01/24 08:19:50;;;;;;;4.93;4.43;;;6.40;99.90;;;;;;5068651;28;20419;-69
2022/01/24 08:22:16;;;;;;;5.77;4.63;;;6.50;99.90;;;;;;5072338;28;20179;-66
2022/01/24 08:24:41;;;;;;;5.43;5.03;;;6.50;99.90;;;;;;5054162;28;20225;-67
2022/01/24 08:27:07;;;;;;;4.50;4.10;;;6.60;99.90;;;;;;5053394;28;20178;-68
2022/01/24 08:29:33;;;;;;;11.83;4.60;;;6.50;99.90;;;;;;5051470;28;20178;-67
2022/01/24 08:31:58;;;;;;;4.43;4.03;;;6.60;99.90;;;;;;5052193;28;20189;-66
2022/01/24 08:34:24;;;;;;;6.70;4.90;;;6.60;99.90;;;;;;5052436;28;20183;-67
2022/01/24 08:36:49;;;;;;;5.40;4.47;;;6.70;99.90;;;;;;5053115;28;20189;-67
2022/01/24 08:39:15;;;;;;;5.13;4.73;;;6.70;99.90;;;;;;5059260;28;20297;-67
2022/01/24 08:44:31;;;;;;;4.90;4.03;;;6.80;99.90;;;;;;5072827;28;20200;-67
2022/01/24 08:46:56;;;;;;;4.47;4.07;;;6.80;99.90;;;;;;5072101;28;20419;-67
2022/01/24 08:49:23;;;;;;;5.43;4.47;;;6.90;99.90;;;;;;5068221;28;20466;-66
2022/01/24 08:51:49;;;;;;;5.60;4.70;;;6.90;99.90;;;;;;5034681;28;20674;-67
2022/01/24 08:54:14;;;;;;;4.87;4.47;;;6.90;99.90;;;;;;5034538;28;20457;-67
2022/01/24 08:56:40;;;;;;;8.30;5.87;;;7.00;99.90;;;;;;5052652;28;20185;-67
2022/01/24 08:59:06;;;;;;;8.63;5.63;;;7.00;99.90;;;;;;5035205;28;20318;-67
2022/01/24 09:01:33;;;;;;;4.80;4.40;;;7.10;99.90;;;;;;5064197;28;20167;-67
2022/01/24 09:03:59;;;;;;;6.07;4.60;;;7.10;99.90;;;;;;5054999;28;20493;-68
2022/01/24 09:06:25;;;;;;;5.13;4.63;;;7.00;99.90;;;;;;5053990;28;20451;-68
2022/01/24 09:08:55;;;;;;;5.40;4.90;;;7.10;99.90;;;;;;5053532;28;20171;-68
2022/01/24 09:11:23;;;;;;;5.33;4.53;;;7.10;99.90;;;;;;5055286;28;20174;-67
2022/01/24 09:13:49;;;;;;;5.07;4.67;;;7.10;99.90;;;;;;5035920;28;20441;-68
2022/01/24 09:16:14;;;;;;;5.00;4.60;;;7.10;99.90;;;;;;5053693;28;20874;-68
2022/01/24 09:18:40;;;;;;;5.10;4.67;;;7.20;99.90;;;;;;5044990;28;20224;-67
2022/01/24 09:21:05;;;;;;;5.07;4.57;;;7.20;99.90;;;;;;5076036;28;20174;-67
2022/01/24 09:23:31;;;;;;;5.87;5.37;;;7.10;99.90;;;;;;5059049;28;20509;-68
2022/01/24 09:25:56;;;;;;;5.10;4.70;;;7.00;99.90;;;;;;5077160;28;20170;-67
2022/01/24 09:28:22;;;;;;;7.07;5.13;;;7.10;99.90;;;;;;5080386;28;20177;-67
2022/01/24 09:30:47;;;;;;;5.47;4.97;;;7.20;99.90;;;;;;5080629;28;20178;-67
2022/01/24 09:33:14;;;;;;;5.00;4.60;;;7.20;99.90;;;;;;5084730;28;20204;-67
2022/01/24 09:35:40;;;;;;;5.73;5.13;;;7.20;99.90;;;;;;5087552;28;20259;-68
2022/01/24 09:38:06;;;;;;;7.10;5.70;;;7.20;99.90;;;;;;5084919;28;20497;-68
2022/01/24 09:40:33;;;;;;;5.87;5.27;;;7.20;99.90;;;;;;5084357;28;20484;-67
2022/01/24 09:42:59;;;;;;;5.40;4.90;;;7.30;99.90;;;;;;5078999;28;20204;-67
2022/01/24 09:45:25;;;;;;;5.50;5.00;;;7.30;99.90;;;;;;5065550;28;20464;-67
2022/01/24 09:47:52;;;;;;;6.87;5.17;;;7.30;99.90;;;;;;5058471;28;20416;-67
2022/01/24 09:50:20;;;;;;;5.30;4.80;;;7.30;99.90;;;;;;5056134;28;20178;-68
2022/01/24 09:52:47;;;;;;;7.63;5.50;;;7.30;99.90;;;;;;5059911;28;20460;-67
2022/01/24 09:55:14;;;;;;;5.70;5.20;;;7.30;99.90;;;;;;5080794;28;20424;-69
2022/01/24 09:57:41;;;;;;;9.47;6.13;;;7.30;99.90;;;;;;5067338;28;20472;-67
2022/01/24 10:00:11;;;;;;;5.97;5.40;;;7.20;99.90;;;;;;5092756;28;20392;-68
2022/01/24 10:02:36;;;;;;;5.93;5.43;;;7.20;99.90;;;;;;5092559;28;20498;-68
2022/01/24 10:05:20;;;;;;;6.33;5.70;;;7.30;99.90;;;;;;5091930;28;20404;-67
2022/01/24 10:07:50;;;;;;;7.27;6.10;;;7.40;99.90;;;;;;5090601;28;20317;-68
2022/01/24 10:10:29;;;;;;;6.23;5.63;;;7.40;99.90;;;;;;5092708;28;20486;-69
2022/01/24 10:18:08;;;;;;;6.33;5.83;;;7.40;99.90;;;;;;5058808;28;20315;-68
2022/01/24 10:20:39;;;;;;;6.53;5.77;;;7.40;99.90;;;;;;5054952;28;20964;-67
2022/01/24 10:23:09;;;;;;;6.40;5.90;;;7.40;99.90;;;;;;5054505;28;20523;-67
2022/01/24 10:25:59;;;;;;;7.80;5.93;;;7.40;99.90;;;;;;5055086;28;20970;-68
2022/01/24 10:28:31;;;;;;;7.20;6.37;;;7.20;99.90;;;;;;5053981;28;20516;-68
2022/01/24 10:31:16;;;;;;;7.33;5.80;;;7.20;99.90;;;;;;5056796;28;20520;-67
2022/01/24 10:34:10;;;;;;;6.07;5.23;;;7.30;99.90;;;;;;5056299;28;20508;-67
2022/01/24 10:36:36;;;;;;;7.00;6.40;;;7.40;99.90;;;;;;5037521;28;20423;-68
2022/01/24 10:39:12;;;;;;;7.43;5.80;;;7.30;99.90;;;;;;5059205;28;20451;-67
2022/01/24 10:41:53;;;;;;;6.20;5.63;;;7.30;99.90;;;;;;5073936;28;20168;-68
2022/01/24 10:44:34;;;;;;;6.40;5.90;;;7.40;99.90;;;;;;5055642;28;20814;-67
2022/01/24 10:47:23;;;;;;;8.57;6.67;;;7.40;99.90;;;;;;5073410;28;20403;-67
2022/01/24 10:49:50;;;;;;;8.40;7.70;;;7.40;99.90;;;;;;5071661;28;20424;-67
2022/01/24 10:52:23;;;;;;;8.10;6.80;;;7.50;99.90;;;;;;5073361;28;20416;-67
2022/01/24 10:54:51;;;;;;;7.20;6.50;;;7.50;99.90;;;;;;5073374;28;20783;-67
2022/01/24 10:57:28;;;;;;;7.10;6.50;;;7.50;99.90;;;;;;5072758;28;20415;-67
2022/01/24 11:00:22;;;;;;;8.17;5.93;;;7.50;99.90;;;;;;5071458;28;20452;-67
2022/01/24 11:02:51;;;;;;;7.00;6.30;;;7.60;99.90;;;;;;5054620;28;20485;-68
2022/01/24 11:05:18;;;;;;;7.27;6.10;;;7.40;99.90;;;;;;5072689;28;20415;-68
2022/01/24 11:08:04;;;;;;;8.40;6.17;;;7.40;99.90;;;;;;5074119;28;20514;-67
2022/01/24 11:10:36;;;;;;;6.30;5.80;;;7.40;99.90;;;;;;5071773;28;20427;-68
2022/01/24 11:13:04;;;;;;;6.80;6.20;;;7.40;99.90;;;;;;5073184;28;20425;-67
2022/01/24 11:15:30;;;;;;;7.07;6.13;;;7.20;99.90;;;;;;5072677;28;20407;-68
2022/01/24 11:17:57;;;;;;;7.23;6.53;;;7.30;99.90;;;;;;5055003;28;20460;-68
2022/01/24 11:20:29;;;;;;;7.23;6.53;;;7.10;99.90;;;;;;5071327;28;20210;-67
2022/01/24 11:23:00;;;;;;;6.90;6.20;;;7.00;99.90;;;;;;5054877;28;20550;-69
2022/01/24 11:25:37;;;;;;;7.47;6.73;;;7.10;99.90;;;;;;5051627;28;20795;-67
2022/01/24 11:28:04;;;;;;;6.53;5.93;;;7.20;99.90;;;;;;5051864;28;20433;-68
2022/01/24 11:30:56;;;;;;;8.93;6.50;;;7.30;99.90;;;;;;5050985;28;20438;-66
2022/01/24 11:33:37;;;;;;;6.77;6.13;;;7.40;99.90;;;;;;5052833;28;20907;-66
2022/01/24 11:36:05;;;;;;;6.07;5.47;;;7.40;99.90;;;;;;5050642;28;20808;-68
2022/01/24 11:38:33;;;;;;;7.20;5.80;;;7.40;99.90;;;;;;5033392;28;20468;-67
2022/01/24 11:41:06;;;;;;;5.77;5.27;;;7.50;99.90;;;;;;5033658;28;20429;-68
2022/01/24 11:43:39;;;;;;;6.80;6.10;;;7.60;99.90;;;;;;5052660;28;20446;-68
2022/01/24 11:46:45;;;;;;;8.00;5.87;;;7.60;99.90;;;;;;5051689;28;20752;-68
2022/01/24 11:49:39;;;;;;;7.50;6.17;;;7.60;99.90;;;;;;5051896;28;20410;-67
2022/01/24 11:52:14;;;;;;;4.97;4.57;;;7.50;99.90;;;;;;5046641;28;20457;-68
2022/01/24 11:57:18;;;;;;;5.30;4.90;;;7.60;99.90;;;;;;5051702;28;20407;-69
2022/01/24 11:59:44;;;;;;;5.30;4.90;;;7.60;99.90;;;;;;5051659;28;20916;-67
2022/01/24 12:02:19;;;;;;;4.87;4.43;;;7.60;99.90;;;;;;5051835;28;20749;-68
2022/01/24 12:04:52;;;;;;;6.20;5.63;;;7.60;99.90;;;;;;5052850;28;20819;-68
2022/01/24 12:07:31;;;;;;;5.80;5.27;;;7.60;99.90;;;;;;5051592;28;20452;-67
2022/01/24 12:10:37;;;;;;;5.50;5.00;;;7.70;99.90;;;;;;5051787;28;20413;-67
2022/01/24 12:13:05;;;;;;;6.30;5.50;;;7.70;99.90;;;;;;5051384;28;20520;-68
2022/01/24 12:15:37;;;;;;;5.27;4.40;;;7.80;99.90;;;;;;5052477;28;20500;-66
2022/01/24 12:18:34;;;;;;;8.93;5.73;;;7.80;99.90;;;;;;5051101;28;20447;-68
2022/01/24 12:21:05;;;;;;;6.03;4.80;;;7.70;99.90;;;;;;5056173;28;20411;-68
2022/01/24 12:23:35;;;;;;;5.93;5.43;;;7.80;99.90;;;;;;5054352;28;20515;-68
2022/01/24 12:26:02;;;;;;;5.30;4.83;;;7.70;99.90;;;;;;5045321;28;20417;-68
2022/01/24 12:28:43;;;;;;;5.23;4.83;;;7.70;99.90;;;;;;5052431;28;20858;-68
2022/01/24 12:31:32;;;;;;;6.03;5.20;;;7.70;99.90;;;;;;5034644;28;20510;-67
2022/01/24 12:34:05;;;;;;;5.40;4.60;;;7.70;99.90;;;;;;5050882;28;20519;-67
2022/01/24 12:36:46;;;;;;;5.30;4.80;;;7.70;99.90;;;;;;5035102;28;20438;-67
2022/01/24 12:39:19;;;;;;;5.50;5.00;;;7.70;99.90;;;;;;5059121;28;20470;-67
2022/01/24 12:41:49;;;;;;;6.83;5.23;;;7.60;99.90;;;;;;5072191;28;20419;-68
2022/01/24 12:47:01;;;;;;;5.30;4.83;;;7.60;99.90;;;;;;5072470;28;20420;-67
2022/01/24 12:49:31;;;;;;;6.27;5.67;;;7.60;99.90;;;;;;5070264;28;20428;-68
2022/01/24 12:52:05;;;;;;;6.40;5.77;;;7.60;99.90;;;;;;5072481;28;20562;-66
2022/01/24 12:54:42;;;;;;;7.37;5.97;;;7.60;99.90;;;;;;5075916;28;20742;-67
2022/01/24 12:57:16;;;;;;;5.63;5.17;;;7.30;99.90;;;;;;5075981;28;20392;-67
2022/01/24 12:59:58;;;;;;;7.53;5.83;;;7.30;99.90;;;;;;5074896;28;20451;-67
2022/01/24 13:02:37;;;;;;;5.77;5.27;;;7.30;99.90;;;;;;5076641;28;20563;-67
2022/01/24 13:05:14;;;;;;;7.90;5.47;;;7.30;99.90;;;;;;5076779;28;20402;-67
2022/01/24 13:07:47;;;;;;;6.70;5.20;;;7.30;99.90;;;;;;5077148;28;20406;-67
2022/01/24 13:10:17;;;;;;;5.90;5.33;;;7.30;99.90;;;;;;5075115;28;20982;-66
2022/01/24 13:12:44;;;;;;;6.57;6.03;;;7.20;99.90;;;;;;5059008;28;20423;-66
2022/01/24 13:20:25;;;;;;;6.67;6.07;;;7.10;99.90;;;;;;5074342;28;20407;-66
2022/01/24 13:21:10;;;;;;;6.63;5.13;;;7.10;99.90;;;;;;5055305;28;20408;-66
2022/01/24 13:23:40;;;;;;;6.37;5.77;;;7.00;99.90;;;;;;5074308;28;20432;-67
2022/01/24 13:26:06;;;;;;;5.70;5.20;;;7.00;99.90;;;;;;5056098;28;20469;-68
2022/01/24 13:28:32;;;;;;;6.20;5.60;;;7.10;99.90;;;;;;5075884;28;20428;-67
2022/01/24 13:31:00;;;;;;;8.67;5.47;;;7.20;99.90;;;;;;5075762;28;20413;-68
2022/01/24 13:33:26;;;;;;;5.27;4.77;;;7.20;99.90;;;;;;5059743;28;20232;-67
2022/01/24 13:36:05;;;;;;;6.33;5.73;;;7.30;99.90;;;;;;5055649;28;20428;-67
2022/01/24 13:38:37;;;;;;;6.43;5.83;;;7.40;99.90;;;;;;5054144;28;20449;-68
2022/01/24 13:41:11;;;;;;;7.37;5.20;;;7.40;99.90;;;;;;5054521;28;20906;-67
2022/01/24 13:43:50;;;;;;;7.03;5.43;;;7.30;99.90;;;;;;5055309;28;20947;-67
2022/01/24 13:46:19;;;;;;;6.47;5.77;;;7.20;99.90;;;;;;5054001;28;20406;-67
2022/01/24 13:48:51;;;;;;;6.47;5.00;;;7.20;99.90;;;;;;5054064;28;20411;-68
2022/01/24 13:51:22;;;;;;;8.20;5.50;;;7.20;99.90;;;;;;5054643;28;20414;-68
2022/01/24 13:53:56;;;;;;;6.23;5.63;;;7.30;99.90;;;;;;5021262;28;20460;-68
2022/01/24 13:56:24;;;;;;;6.23;5.40;;;7.20;99.90;;;;;;5053555;28;20405;-69
2022/01/24 13:59:27;;;;;;;8.23;6.63;;;7.30;99.90;;;;;;5053905;28;20530;-67
2022/01/24 14:01:57;;;;;;;6.83;6.10;;;7.30;99.90;;;;;;5053922;28;20414;-66
2022/01/24 14:04:32;;;;;;;6.03;5.43;;;7.30;99.90;;;;;;5054930;28;20848;-68
2022/01/24 14:07:01;;;;;;;5.77;5.03;;;7.30;99.90;;;;;;5053336;28;20407;-68
2022/01/24 14:09:42;;;;;;;6.00;5.50;;;7.30;99.90;;;;;;5053785;28;20416;-67
2022/01/24 14:12:12;;;;;;;5.77;4.93;;;7.30;99.90;;;;;;5053191;28;20479;-68
2022/01/24 14:14:43;;;;;;;6.50;5.60;;;7.40;99.90;;;;;;5054517;28;20430;-69
2022/01/24 14:19:42;;;;;;;5.10;4.60;;;7.30;99.90;;;;;;5068979;28;20463;-67
2022/01/24 14:22:12;;;;;;;6.27;5.30;;;7.20;99.90;;;;;;5059200;28;20489;-67
2022/01/24 14:24:54;;;;;;;5.93;5.40;;;7.20;99.90;;;;;;5053530;28;20461;-66
2022/01/24 14:27:41;;;;;;;5.30;4.80;;;7.20;99.90;;;;;;5053006;28;20460;-67
2022/01/24 14:30:13;;;;;;;5.70;5.10;;;7.20;99.90;;;;;;5053172;28;20446;-67
2022/01/24 14:33:03;;;;;;;6.13;5.63;;;7.20;99.90;;;;;;5052832;28;20425;-68
2022/01/24 14:35:35;;;;;;;7.47;6.23;;;7.20;99.90;;;;;;5054307;28;20409;-69
2022/01/24 14:38:01;;;;;;;6.13;5.53;;;7.30;99.90;;;;;;5053222;28;20445;-69
2022/01/24 14:40:46;;;;;;;5.77;5.17;;;7.30;99.90;;;;;;5053069;28;20501;-67
2022/01/24 14:46:05;;;;;;;5.53;5.13;;;7.30;99.90;;;;;;5073569;28;20546;-68
2022/01/24 14:48:30;;;;;;;5.80;5.30;;;7.30;99.90;;;;;;5055141;28;20578;-67
2022/01/24 14:50:56;;;;;;;6.50;5.80;;;7.30;99.90;;;;;;5071537;28;20980;-67
2022/01/24 14:53:28;;;;;;;5.60;5.20;;;7.20;99.90;;;;;;5074755;28;20623;-68
2022/01/24 14:55:53;;;;;;;6.93;5.40;;;7.20;99.90;;;;;;5070684;28;20192;-68
2022/01/24 14:58:19;;;;;;;7.63;6.97;;;7.10;99.90;;;;;;5070258;28;20455;-68
2022/01/24 15:00:44;;;;;;;6.70;6.07;;;7.10;99.90;;;;;;5059794;28;20333;-67